createdAt,value
2023-04-24T00:01:28.320Z,40.05
2023-04-24T00:03:33.806Z,40.12
2023-04-24T00:05:38.792Z,40.21
2023-04-24T00:07:43.888Z,40.01
2023-04-24T00:09:48.895Z,40.03
2023-04-24T00:11:53.973Z,39.99
2023-04-24T00:13:59.063Z,39.89
2023-04-24T00:16:04.100Z,39.78
2023-04-24T00:18:09.276Z,39.97
2023-04-24T00:20:14.303Z,39.92
2023-04-24T00:22:19.330Z,39.96
2023-04-24T00:24:24.356Z,39.89
2023-04-24T00:26:29.335Z,39.94
2023-04-24T00:28:34.323Z,39.83
2023-04-24T00:30:39.304Z,39.87
2023-04-24T00:32:44.437Z,39.75
2023-04-24T00:34:49.456Z,39.72
2023-04-24T00:36:54.655Z,39.84
2023-04-24T00:38:59.659Z,39.82
2023-04-24T00:41:04.640Z,39.77
2023-04-24T00:43:12.362Z,39.79
2023-04-24T00:45:17.482Z,39.8
2023-04-24T00:47:22.534Z,39.86
2023-04-24T00:49:27.524Z,39.81
2023-04-24T00:51:32.580Z,39.92
2023-04-24T00:53:37.556Z,39.9
2023-04-24T00:55:42.566Z,39.8
2023-04-24T00:57:47.520Z,39.86
2023-04-24T00:59:52.499Z,39.87
2023-04-24T01:01:57.524Z,39.89
2023-04-24T01:04:03.535Z,39.87
2023-04-24T01:06:08.742Z,39.81
2023-04-24T01:08:13.715Z,39.79
2023-04-24T01:10:18.871Z,40.02
2023-04-24T01:12:23.931Z,39.87
2023-04-24T01:14:28.938Z,39.79
2023-04-24T01:16:34.042Z,39.84
2023-04-24T01:18:39.041Z,39.86
2023-04-24T01:20:44.108Z,39.77
2023-04-24T01:22:49.098Z,39.7
2023-04-24T01:24:54.090Z,39.65
2023-04-24T01:26:59.210Z,39.66
2023-04-24T01:29:04.357Z,39.75
2023-04-24T01:31:09.460Z,39.71
2023-04-24T01:33:14.529Z,39.61
2023-04-24T01:35:19.610Z,39.61
2023-04-24T01:37:24.633Z,39.65
2023-04-24T01:39:29.709Z,39.58
2023-04-24T01:41:34.764Z,39.5
2023-04-24T01:43:39.816Z,39.58
2023-04-24T01:45:44.800Z,39.7
2023-04-24T01:47:50.133Z,39.56
2023-04-24T01:49:55.185Z,39.56
2023-04-24T01:52:00.218Z,39.47
2023-04-24T01:54:05.187Z,39.44
2023-04-24T01:56:10.162Z,39.55
2023-04-24T01:58:15.134Z,39.34
2023-04-24T02:00:20.131Z,39.28
2023-04-24T02:02:25.576Z,39.53
2023-04-24T02:05:12.091Z,39.59
2023-04-24T02:07:17.096Z,39.73
2023-04-24T02:09:22.076Z,39.64
2023-04-24T02:11:27.108Z,39.6
2023-04-24T02:13:32.081Z,39.58
2023-04-24T02:15:37.053Z,39.52
2023-04-24T02:17:42.296Z,39.54
2023-04-24T02:19:47.475Z,39.46
2023-04-24T02:21:52.566Z,39.58
2023-04-24T02:23:57.539Z,39.55
2023-04-24T02:26:02.528Z,39.5
2023-04-24T02:28:07.519Z,39.53
2023-04-24T02:30:12.601Z,39.75
2023-04-24T02:32:18.087Z,39.78
2023-04-24T02:34:23.128Z,39.73
2023-04-24T02:36:28.130Z,39.79
2023-04-24T02:38:33.226Z,39.56
2023-04-24T02:40:38.219Z,39.5
2023-04-24T02:42:43.232Z,39.56
2023-04-24T02:44:48.193Z,39.39
2023-04-24T02:46:53.292Z,39.39
2023-04-24T02:48:58.292Z,39.29
2023-04-24T02:51:03.514Z,39.45
2023-04-24T02:53:08.527Z,39.41
2023-04-24T02:55:13.486Z,39.37
2023-04-24T02:57:18.500Z,39.4
2023-04-24T02:59:23.480Z,39.38
2023-04-24T03:01:28.600Z,39.42
2023-04-24T03:03:34.246Z,39.26
2023-04-24T03:05:39.436Z,39.16
2023-04-24T03:07:44.418Z,39.26
2023-04-24T03:09:49.453Z,39.37
2023-04-24T03:11:54.462Z,39.42
2023-04-24T03:13:59.464Z,39.39
2023-04-24T03:16:04.615Z,39.4
2023-04-24T03:18:09.772Z,39.36
2023-04-24T03:20:14.960Z,39.34
2023-04-24T03:22:19.946Z,39.28
2023-04-24T03:24:24.929Z,39.33
2023-04-24T03:26:29.958Z,39.43
2023-04-24T03:28:34.978Z,39.35
2023-04-24T03:30:40.025Z,39.39
2023-04-24T03:32:45.283Z,39.57
2023-04-24T03:34:50.322Z,39.39
2023-04-24T03:36:55.244Z,39.5
2023-04-24T03:39:00.239Z,39.53
2023-04-24T03:41:05.354Z,39.54
2023-04-24T03:43:10.418Z,39.59
2023-04-24T03:45:15.438Z,39.45
2023-04-24T03:47:20.444Z,39.46
2023-04-24T03:49:25.478Z,39.48
2023-04-24T03:51:30.542Z,39.46
2023-04-24T03:53:35.616Z,39.5
2023-04-24T03:55:40.701Z,39.45
2023-04-24T03:57:45.705Z,39.37
2023-04-24T03:59:50.717Z,39.31
2023-04-24T04:01:55.920Z,39.51
2023-04-24T04:04:01.606Z,39.56
2023-04-24T04:06:06.831Z,39.6
2023-04-24T04:08:11.885Z,39.4
2023-04-24T04:10:16.880Z,39.45
2023-04-24T04:12:21.898Z,39.45
2023-04-24T04:14:26.887Z,39.3
2023-04-24T04:16:32.050Z,39.57
2023-04-24T04:18:37.115Z,39.33
2023-04-24T04:20:42.128Z,39.33
2023-04-24T04:22:47.273Z,39.13
2023-04-24T04:24:52.288Z,39.32
2023-04-24T04:26:57.311Z,39.51
2023-04-24T04:29:02.423Z,39.34
2023-04-24T04:31:07.446Z,39.2
2023-04-24T04:33:12.590Z,39.09
2023-04-24T04:35:17.599Z,38.98
2023-04-24T04:37:22.674Z,38.91
2023-04-24T04:39:27.769Z,39.05
2023-04-24T04:41:32.745Z,38.85
2023-04-24T04:43:37.671Z,39.05
2023-04-24T04:45:42.852Z,38.94
2023-04-24T04:47:48.036Z,39.05
2023-04-24T04:49:53.043Z,39.08
2023-04-24T04:51:58.088Z,39.02
2023-04-24T04:54:03.133Z,39.11
2023-04-24T04:56:08.181Z,39.56
2023-04-24T04:58:13.200Z,39.95
2023-04-24T05:00:18.203Z,40.04
2023-04-24T05:02:23.419Z,39.9
2023-04-24T05:04:29.062Z,39.94
2023-04-24T05:06:34.385Z,40.18
2023-04-24T05:08:39.544Z,39.99
2023-04-24T05:10:44.552Z,40.47
2023-04-24T05:12:49.628Z,40.61
2023-04-24T05:14:54.762Z,40.87
2023-04-24T05:16:59.885Z,40.94
2023-04-24T05:19:04.898Z,41.12
2023-04-24T05:21:09.962Z,41.07
2023-04-24T05:23:15.046Z,41.45
2023-04-24T05:25:20.053Z,41.84
2023-04-24T05:27:25.058Z,41.59
2023-04-24T05:29:30.058Z,41.69
2023-04-24T05:31:35.235Z,41.79
2023-04-24T05:33:40.285Z,41.94
2023-04-24T05:35:45.268Z,41.41
2023-04-24T05:37:50.298Z,41.68
2023-04-24T05:39:55.335Z,41.85
2023-04-24T05:42:00.503Z,41.89
2023-04-24T05:44:05.528Z,41.9
2023-04-24T05:46:10.746Z,41.7
2023-04-24T05:48:15.776Z,41.96
2023-04-24T05:50:20.843Z,42.18
2023-04-24T05:52:25.853Z,41.86
2023-04-24T05:54:30.958Z,42.05
2023-04-24T05:56:35.967Z,42.14
2023-04-24T05:58:40.958Z,42.47
2023-04-24T06:00:45.975Z,42.32
2023-04-24T06:02:51.957Z,42.47
2023-04-24T06:04:57.604Z,42.16
2023-04-24T06:07:02.727Z,42.53
2023-04-24T06:09:07.726Z,42.5
2023-04-24T06:11:12.691Z,42.54
2023-04-24T06:13:17.706Z,42.68
2023-04-24T06:15:22.742Z,42.47
2023-04-24T06:17:27.963Z,42.81
2023-04-24T06:19:32.965Z,43.25
2023-04-24T06:21:37.962Z,41.32
2023-04-24T06:23:42.964Z,40.32
2023-04-24T06:25:47.993Z,40.75
2023-04-24T06:27:52.943Z,40.56
2023-04-24T06:29:58.070Z,40.71
2023-04-24T06:32:03.244Z,40.8
2023-04-24T06:34:08.731Z,40.44
2023-04-24T06:36:13.842Z,40.14
2023-04-24T06:38:18.890Z,39.89
2023-04-24T06:40:23.923Z,39.7
2023-04-24T06:42:28.917Z,39.72
2023-04-24T06:44:33.966Z,39.75
2023-04-24T06:46:42.396Z,39.83
2023-04-24T06:48:47.456Z,39.82
2023-04-24T06:50:52.461Z,39.68
2023-04-24T06:52:57.506Z,39.17
2023-04-24T06:55:02.621Z,39.52
2023-04-24T06:57:07.705Z,39.71
2023-04-24T06:59:12.717Z,39.39
2023-04-24T07:01:17.920Z,39.59
2023-04-24T07:03:23.525Z,39.25
2023-04-24T07:05:28.657Z,39.26
2023-04-24T07:07:33.753Z,39.16
2023-04-24T07:09:38.762Z,39.31
2023-04-24T07:11:43.935Z,39.26
2023-04-24T07:13:48.960Z,39.1
2023-04-24T07:15:54.305Z,39.37
2023-04-24T07:17:59.660Z,39.45
2023-04-24T07:20:04.671Z,39.49
2023-04-24T07:22:09.715Z,39.2
2023-04-24T07:24:14.744Z,39.09
2023-04-24T07:26:19.732Z,39.18
2023-04-24T07:28:25.073Z,39.28
2023-04-24T07:30:30.071Z,39.13
2023-04-24T07:32:35.133Z,39.06
2023-04-24T07:34:40.110Z,39.14
2023-04-24T07:36:45.110Z,39.17
2023-04-24T07:38:50.132Z,39.14
2023-04-24T07:40:56.440Z,39.27
2023-04-24T07:43:01.441Z,39.06
2023-04-24T07:45:06.623Z,39.1
2023-04-24T07:47:11.659Z,39.12
2023-04-24T07:49:19.858Z,39.06
2023-04-24T07:51:25.132Z,39.07
2023-04-24T07:53:30.149Z,39.29
2023-04-24T07:55:35.151Z,39.33
2023-04-24T07:57:40.160Z,39.47
2023-04-24T07:59:45.897Z,39.18
2023-04-24T08:01:51.005Z,39.2
2023-04-24T08:03:56.797Z,39.25
2023-04-24T08:06:02.590Z,39.19
2023-04-24T08:08:07.976Z,39.08
2023-04-24T08:10:13.091Z,39.19
2023-04-24T08:12:18.166Z,39.33
2023-04-24T08:14:23.203Z,39.23
2023-04-24T08:16:28.405Z,39.29
2023-04-24T08:18:33.554Z,39.18
2023-04-24T08:20:38.649Z,39.4
2023-04-24T08:22:43.674Z,39.23
2023-04-24T08:24:48.694Z,39.27
2023-04-24T08:26:53.732Z,39.18
2023-04-24T08:28:59.296Z,39.22
2023-04-24T08:31:04.361Z,39.05
2023-04-24T08:33:09.690Z,39.18
2023-04-24T08:35:14.802Z,39.09
2023-04-24T08:37:19.832Z,39.14
2023-04-24T08:39:24.842Z,39.12
2023-04-24T08:41:29.880Z,39.1
2023-04-24T08:43:34.927Z,39.02
2023-04-24T08:45:40.073Z,39.04
2023-04-24T08:47:45.352Z,39.01
2023-04-24T08:49:50.427Z,39.03
2023-04-24T08:51:55.505Z,39.15
2023-04-24T08:54:00.550Z,39.09
2023-04-24T08:56:05.558Z,39.15
2023-04-24T08:58:10.562Z,39.17
2023-04-24T09:00:15.863Z,39.13
2023-04-24T09:02:21.365Z,39.22
2023-04-24T09:04:27.329Z,39.23
2023-04-24T09:06:32.687Z,39.16
2023-04-24T09:08:37.723Z,39.2
2023-04-24T09:10:42.736Z,39.25
2023-04-24T09:12:47.790Z,39.24
2023-04-24T09:14:52.930Z,39.24
2023-04-24T09:16:58.282Z,39.34
2023-04-24T09:19:03.429Z,39.39
2023-04-24T09:21:08.509Z,39.43
2023-04-24T09:23:13.493Z,39.42
2023-04-24T09:25:18.562Z,39.48
2023-04-24T09:27:23.598Z,39.53
2023-04-24T09:29:28.748Z,39.56
2023-04-24T09:31:33.942Z,39.6
2023-04-24T09:33:39.099Z,39.68
2023-04-24T09:35:44.097Z,39.64
2023-04-24T09:37:49.164Z,39.66
2023-04-24T09:39:54.202Z,39.74
2023-04-24T09:41:59.236Z,39.97
2023-04-24T09:44:04.294Z,39.94
2023-04-24T09:46:09.805Z,39.89
2023-04-24T09:48:14.926Z,39.79
2023-04-24T09:50:23.851Z,39.99
2023-04-24T09:52:28.993Z,40.02
2023-04-24T09:54:34.090Z,39.94
2023-04-24T09:56:39.136Z,39.89
2023-04-24T09:58:44.129Z,39.79
2023-04-24T10:00:49.168Z,39.91
2023-04-24T10:02:54.608Z,40.12
2023-04-24T10:05:00.213Z,40.27
2023-04-24T10:07:05.844Z,39.96
2023-04-24T10:09:10.884Z,40.04
2023-04-24T10:11:15.899Z,40.06
2023-04-24T10:13:20.942Z,40.03
2023-04-24T10:15:25.942Z,39.85
2023-04-24T10:17:31.000Z,39.76
2023-04-24T10:19:36.008Z,39.83
2023-04-24T10:21:40.997Z,39.4
2023-04-24T10:23:46.029Z,39.55
2023-04-24T10:25:51.058Z,39.65
2023-04-24T10:27:56.122Z,39.65
2023-04-24T10:30:01.139Z,39.71
2023-04-24T10:32:06.167Z,39.74
2023-04-24T10:34:11.181Z,39.78
2023-04-24T10:36:16.371Z,39.62
2023-04-24T10:38:21.472Z,39.64
2023-04-24T10:40:26.532Z,40.34
2023-04-24T10:42:31.543Z,40.78
2023-04-24T10:44:36.534Z,40.92
2023-04-24T10:46:41.692Z,40.52
2023-04-24T10:48:46.708Z,40.36
2023-04-24T10:50:51.761Z,40.17
2023-04-24T10:52:56.753Z,40.18
2023-04-24T10:55:02.092Z,40.17
2023-04-24T10:57:07.088Z,40.04
2023-04-24T10:59:12.115Z,40.03
2023-04-24T11:01:17.461Z,39.76
2023-04-24T11:03:22.985Z,39.45
2023-04-24T11:05:28.063Z,39.21
2023-04-24T11:07:33.081Z,39.07
2023-04-24T11:09:38.585Z,39.14
2023-04-24T11:11:43.702Z,39.01
2023-04-24T11:13:48.793Z,39.15
2023-04-24T11:15:53.890Z,38.95
2023-04-24T11:17:59.128Z,38.99
2023-04-24T11:20:28.865Z,38.72
2023-04-24T11:22:33.907Z,38.77
2023-04-24T11:24:38.927Z,38.59
2023-04-24T11:26:43.968Z,38.64
2023-04-24T11:28:49.239Z,38.61
2023-04-24T11:30:54.221Z,38.5
2023-04-24T11:32:59.375Z,38.4
2023-04-24T11:35:04.601Z,38.47
2023-04-24T11:37:09.586Z,38.61
2023-04-24T11:39:14.617Z,39.04
2023-04-24T11:41:19.766Z,39.28
2023-04-24T11:43:24.890Z,39.43
2023-04-24T11:45:29.920Z,39.55
2023-04-24T11:47:35.322Z,39.85
2023-04-24T11:49:40.377Z,39.86
2023-04-24T11:51:59.160Z,39.75
2023-04-24T11:54:07.142Z,39.57
2023-04-24T11:56:12.062Z,39.46
2023-04-24T11:58:17.042Z,39.26
2023-04-24T12:00:22.406Z,39.01
2023-04-24T12:02:28.456Z,38.82
2023-04-24T12:04:37.467Z,38.74
2023-04-24T12:06:42.762Z,38.62
2023-04-24T12:08:47.780Z,38.68
2023-04-24T12:10:52.809Z,38.71
2023-04-24T12:12:57.818Z,38.58
2023-04-24T12:15:03.776Z,38.65
2023-04-24T12:17:08.823Z,38.86
2023-04-24T12:19:13.904Z,39.01
2023-04-24T12:21:22.655Z,38.72
2023-04-24T12:23:28.017Z,39.01
2023-04-24T12:25:33.176Z,39.21
2023-04-24T12:27:38.431Z,39.58
2023-04-24T12:29:43.451Z,39.77
2023-04-24T12:31:48.678Z,39.96
2023-04-24T12:33:53.873Z,40.27
2023-04-24T12:35:59.014Z,40.43
2023-04-24T12:38:04.047Z,40.54
2023-04-24T12:40:09.422Z,40.69
2023-04-24T12:42:14.536Z,40.91
2023-04-24T12:44:19.649Z,41.28
2023-04-24T12:46:25.516Z,41.64
2023-04-24T12:48:30.800Z,41.99
2023-04-24T12:50:35.900Z,43.02
2023-04-24T12:52:41.046Z,42.57
2023-04-24T12:54:46.274Z,42.95
2023-04-24T12:56:51.357Z,42.78
2023-04-24T12:58:56.423Z,45.06
2023-04-24T13:01:01.532Z,42.24
2023-04-24T13:03:07.541Z,41.24
2023-04-24T13:05:12.741Z,40.85
2023-04-24T13:07:17.890Z,39.54
2023-04-24T13:09:22.918Z,38.92
2023-04-24T13:11:27.979Z,38.75
2023-04-24T13:13:33.079Z,38.43
2023-04-24T13:15:38.384Z,38.37
2023-04-24T13:17:43.671Z,38.48
2023-04-24T13:19:49.163Z,38.38
2023-04-24T13:21:54.283Z,38.58
2023-04-24T13:23:59.390Z,38.62
2023-04-24T13:26:04.529Z,38.61
2023-04-24T13:28:09.618Z,38.49
2023-04-24T13:30:14.775Z,38.37
2023-04-24T13:32:20.506Z,38.48
2023-04-24T13:34:25.720Z,38.8
2023-04-24T13:36:31.088Z,38.36
2023-04-24T13:38:36.132Z,38.11
2023-04-24T13:40:41.125Z,37.92
2023-04-24T13:42:46.183Z,37.98
2023-04-24T13:44:51.258Z,38.04
2023-04-24T13:46:56.585Z,37.94
2023-04-24T13:49:01.678Z,37.96
2023-04-24T13:51:06.888Z,37.95
2023-04-24T13:53:11.927Z,37.8
2023-04-24T13:55:16.927Z,38.36
2023-04-24T13:57:21.930Z,38.26
2023-04-24T13:59:26.932Z,38.08
2023-04-24T14:01:32.085Z,37.99
2023-04-24T14:03:37.874Z,38.01
2023-04-24T14:05:42.995Z,37.97
2023-04-24T14:07:48.067Z,37.17
2023-04-24T14:09:53.057Z,37.2
2023-04-24T14:11:58.108Z,37.15
2023-04-24T14:14:03.165Z,37.6
2023-04-24T14:16:08.443Z,37.91
2023-04-24T14:18:13.638Z,38.16
2023-04-24T14:20:18.722Z,38.36
2023-04-24T14:22:23.748Z,38.41
2023-04-24T14:24:28.806Z,38.74
2023-04-24T14:26:33.834Z,38.85
2023-04-24T14:28:38.907Z,38.68
2023-04-24T14:30:43.952Z,38.54
2023-04-24T14:32:49.152Z,38.28
2023-04-24T14:34:54.194Z,38.17
2023-04-24T14:36:59.184Z,38
2023-04-24T14:39:04.324Z,38.54
2023-04-24T14:41:15.223Z,38.55
2023-04-24T14:43:20.316Z,38.08
2023-04-24T14:45:25.624Z,38.03
2023-04-24T14:47:30.801Z,37.96
2023-04-24T14:49:35.838Z,37.79
2023-04-24T14:51:40.828Z,37.64
2023-04-24T14:53:46.644Z,37.68
2023-04-24T14:55:51.897Z,37.65
2023-04-24T14:57:56.894Z,37.98
2023-04-24T15:00:02.120Z,38.21
2023-04-24T15:02:24.797Z,38.04
2023-04-24T15:04:30.495Z,38.23
2023-04-24T15:06:35.680Z,38.17
2023-04-24T15:08:40.687Z,38.51
2023-04-24T15:10:45.758Z,38.74
2023-04-24T15:12:50.837Z,38.56
2023-04-24T15:14:55.852Z,38.52
2023-04-24T15:17:01.323Z,38.65
2023-04-24T15:19:06.424Z,38.6
2023-04-24T15:21:11.491Z,38.75
2023-04-24T15:23:16.487Z,38.72
2023-04-24T15:25:21.541Z,38.86
2023-04-24T15:27:26.571Z,38.71
2023-04-24T15:29:31.625Z,38.63
2023-04-24T15:31:36.821Z,38.81
2023-04-24T15:33:41.830Z,38.72
2023-04-24T15:35:46.898Z,38.59
2023-04-24T15:37:52.150Z,38.36
2023-04-24T15:39:57.261Z,38.37
2023-04-24T15:42:02.540Z,38.48
2023-04-24T15:44:07.536Z,38.86
2023-04-24T15:46:12.705Z,38.77
2023-04-24T15:48:17.809Z,38.75
2023-04-24T15:50:22.951Z,38.57
2023-04-24T15:52:27.972Z,38.31
2023-04-24T15:54:32.996Z,38.21
2023-04-24T15:56:38.012Z,38.28
2023-04-24T15:58:43.024Z,38.24
2023-04-24T16:00:48.047Z,38.7
2023-04-24T16:02:53.484Z,38.76
2023-04-24T16:04:59.535Z,39.04
2023-04-24T16:07:04.769Z,38.98
2023-04-24T16:09:09.867Z,39.03
2023-04-24T16:11:14.890Z,38.98
2023-04-24T16:13:19.935Z,39.16
2023-04-24T16:15:24.923Z,39.07
2023-04-24T16:17:30.094Z,39.45
2023-04-24T16:19:35.519Z,39.16
2023-04-24T16:21:40.740Z,38.86
2023-04-24T16:23:45.780Z,38.75
2023-04-24T16:25:50.750Z,38.9
2023-04-24T16:27:55.829Z,39.14
2023-04-24T16:30:00.955Z,39.07
2023-04-24T16:32:05.976Z,39.01
2023-04-24T16:34:11.024Z,39.01
2023-04-24T16:36:16.073Z,38.93
2023-04-24T16:38:21.131Z,39.26
2023-04-24T16:40:26.170Z,39.39
2023-04-24T16:42:31.703Z,39.45
2023-04-24T16:44:36.790Z,39.59
2023-04-24T16:46:42.018Z,39.3
2023-04-24T16:48:47.475Z,39.25
2023-04-24T16:50:52.617Z,39.19
2023-04-24T16:52:57.603Z,39.08
2023-04-24T16:55:02.646Z,39.09
2023-04-24T16:57:07.701Z,39.08
2023-04-24T16:59:12.792Z,39.35
2023-04-24T17:01:17.997Z,39.17
2023-04-24T17:03:23.984Z,39.95
2023-04-24T17:05:29.017Z,39.9
2023-04-24T17:07:33.971Z,39.94
2023-04-24T17:09:39.000Z,39.95
2023-04-24T17:11:44.080Z,40
2023-04-24T17:13:49.193Z,39.99
2023-04-24T17:15:54.186Z,40.54
2023-04-24T17:17:59.327Z,40.92
2023-04-24T17:20:24.729Z,40.83
2023-04-24T17:22:30.856Z,40.89
2023-04-24T17:24:35.900Z,40.95
2023-04-24T17:26:41.006Z,41.3
2023-04-24T17:28:46.312Z,41.43
2023-04-24T17:30:51.587Z,41.48
2023-04-24T17:32:56.761Z,41.68
2023-04-24T17:35:01.881Z,41.5
2023-04-24T17:37:06.879Z,41.4
2023-04-24T17:39:11.927Z,41.27
2023-04-24T17:41:16.941Z,41.16
2023-04-24T17:43:22.057Z,41.2
2023-04-24T17:45:27.068Z,40.97
2023-04-24T17:47:32.210Z,41.4
2023-04-24T17:49:37.262Z,41.23
2023-04-24T17:51:42.344Z,41.3
2023-04-24T17:53:47.332Z,41.04
2023-04-24T17:55:52.346Z,41.08
2023-04-24T17:57:57.310Z,40.91
2023-04-24T18:00:02.347Z,41.02
2023-04-24T18:02:07.368Z,40.88
2023-04-24T18:04:13.202Z,40.96
2023-04-24T18:06:18.524Z,41.1
2023-04-24T18:08:23.609Z,40.92
2023-04-24T18:10:28.720Z,40.7
2023-04-24T18:12:33.739Z,40.62
2023-04-24T18:14:38.859Z,40.6
2023-04-24T18:16:44.003Z,40.59
2023-04-24T18:18:49.740Z,40.69
2023-04-24T18:20:55.051Z,40.62
2023-04-24T18:23:02.940Z,40.55
2023-04-24T18:25:08.528Z,40.62
2023-04-24T18:27:13.571Z,40.67
2023-04-24T18:29:18.620Z,40.53
2023-04-24T18:31:23.768Z,40.46
2023-04-24T18:33:28.883Z,40.33
2023-04-24T18:35:34.094Z,40.5
2023-04-24T18:37:39.286Z,40.53
2023-04-24T18:39:44.432Z,40.47
2023-04-24T18:41:49.500Z,40.38
2023-04-24T18:43:54.577Z,40.41
2023-04-24T18:45:59.643Z,40.43
2023-04-24T18:48:04.902Z,40.36
2023-04-24T18:50:09.978Z,40.31
2023-04-24T18:52:14.986Z,40.3
2023-04-24T18:54:19.972Z,40.3
2023-04-24T18:56:24.964Z,40.45
2023-04-24T18:58:30.042Z,40.41
2023-04-24T19:00:35.182Z,40.37
2023-04-24T19:02:40.545Z,40.23
2023-04-24T19:04:45.710Z,40.74
2023-04-24T19:06:50.896Z,40.89
2023-04-24T19:08:56.309Z,41
2023-04-24T19:11:01.302Z,40.65
2023-04-24T19:13:06.433Z,40.51
2023-04-24T19:15:11.415Z,40.68
2023-04-24T19:17:16.497Z,40.57
2023-04-24T19:19:21.548Z,40.48
2023-04-24T19:21:26.571Z,40.29
2023-04-24T19:23:31.685Z,40.36
2023-04-24T19:25:36.794Z,40.11
2023-04-24T19:27:41.773Z,40.14
2023-04-24T19:29:46.866Z,40.13
2023-04-24T19:31:52.118Z,40.46
2023-04-24T19:33:57.243Z,40.25
2023-04-24T19:36:02.264Z,40.25
2023-04-24T19:38:07.332Z,40.07
2023-04-24T19:40:12.348Z,40.61
2023-04-24T19:42:21.119Z,40.71
2023-04-24T19:44:26.200Z,40.77
2023-04-24T19:46:31.411Z,41.14
2023-04-24T19:48:36.526Z,41.96
2023-04-24T19:50:43.879Z,41.85
2023-04-24T19:52:49.398Z,41.62
2023-04-24T19:54:54.464Z,41.56
2023-04-24T19:56:59.588Z,41.2
2023-04-24T19:59:04.688Z,41.12
2023-04-24T20:01:09.800Z,41.14
2023-04-24T20:03:35.146Z,41.13
2023-04-24T20:05:40.213Z,40.8
2023-04-24T20:07:45.222Z,40.91
2023-04-24T20:09:50.226Z,40.25
2023-04-24T20:11:55.199Z,40.24
2023-04-24T20:14:00.225Z,40.57
2023-04-24T20:16:05.574Z,40.44
2023-04-24T20:18:10.732Z,40.69
2023-04-24T20:20:15.901Z,40.1
2023-04-24T20:22:21.036Z,40.27
2023-04-24T20:24:26.135Z,40.67
2023-04-24T20:26:31.151Z,39.98
2023-04-24T20:28:36.238Z,40.2
2023-04-24T20:30:41.391Z,39.54
2023-04-24T20:32:46.554Z,39.56
2023-04-24T20:34:51.789Z,39.38
2023-04-24T20:36:56.830Z,39.51
2023-04-24T20:39:01.852Z,39.31
2023-04-24T20:41:06.829Z,39.24
2023-04-24T20:43:11.826Z,39.29
2023-04-24T20:45:16.871Z,38.95
2023-04-24T20:47:21.918Z,39.1
2023-04-24T20:49:27.034Z,39.28
2023-04-24T20:51:32.012Z,39.19
2023-04-24T20:53:36.984Z,39.17
2023-04-24T20:55:42.176Z,39.11
2023-04-24T20:57:47.220Z,38.98
2023-04-24T20:59:52.295Z,38.83
2023-04-24T21:01:57.449Z,38.83
2023-04-24T21:04:02.746Z,38.78
2023-04-24T21:06:07.798Z,38.61
2023-04-24T21:08:12.855Z,38.51
2023-04-24T21:10:17.974Z,38.29
2023-04-24T21:12:23.222Z,38.3
2023-04-24T21:14:28.284Z,38.25
2023-04-24T21:16:33.611Z,38.07
2023-04-24T21:18:38.890Z,38.2
2023-04-24T21:20:44.003Z,38.08
2023-04-24T21:22:49.039Z,37.9
2023-04-24T21:24:54.064Z,37.88
2023-04-24T21:26:59.181Z,37.89
2023-04-24T21:29:04.316Z,37.92
2023-04-24T21:31:09.374Z,37.73
2023-04-24T21:33:14.454Z,37.69
2023-04-24T21:35:19.500Z,37.76
2023-04-24T21:37:24.609Z,37.69
2023-04-24T21:39:29.662Z,37.62
2023-04-24T21:41:34.694Z,37.56
2023-04-24T21:43:50.848Z,37.33
2023-04-24T21:45:56.296Z,37.28
2023-04-24T21:48:01.519Z,37.26
2023-04-24T21:50:06.704Z,37.12
2023-04-24T21:52:11.749Z,37.01
2023-04-24T21:54:16.780Z,36.96
2023-04-24T21:56:21.807Z,36.96
2023-04-24T21:58:26.889Z,36.65
2023-04-24T22:00:32.206Z,36.58
2023-04-24T22:02:38.208Z,36.47
2023-04-24T22:04:43.961Z,36.33
2023-04-24T22:06:49.103Z,36.21
2023-04-24T22:08:54.117Z,36.19
2023-04-24T22:10:59.209Z,36.05
2023-04-24T22:13:04.194Z,35.99
2023-04-24T22:15:09.198Z,35.81
2023-04-24T22:17:14.316Z,35.74
2023-04-24T22:19:19.286Z,35.85
2023-04-24T22:21:24.424Z,35.8
2023-04-24T22:23:29.651Z,35.4
2023-04-24T22:25:34.724Z,35.27
2023-04-24T22:27:39.834Z,35.28
2023-04-24T22:29:44.864Z,35.26
2023-04-24T22:31:50.091Z,35.28
2023-04-24T22:33:55.118Z,35.18
2023-04-24T22:36:00.147Z,35.21
2023-04-24T22:38:05.344Z,35.09
2023-04-24T22:40:10.451Z,34.84
2023-04-24T22:42:15.495Z,34.86
2023-04-24T22:44:20.567Z,34.79
2023-04-24T22:46:25.771Z,34.8
2023-04-24T22:48:31.001Z,34.76
2023-04-24T22:50:36.138Z,34.68
2023-04-24T22:52:41.238Z,34.75
2023-04-24T22:54:46.297Z,34.68
2023-04-24T22:56:51.280Z,34.63
2023-04-24T22:58:56.376Z,34.59
2023-04-24T23:01:01.638Z,34.43
2023-04-24T23:03:07.253Z,34.52
2023-04-24T23:05:12.399Z,34.5
2023-04-24T23:07:17.427Z,34.5
2023-04-24T23:09:22.498Z,34.48
2023-04-24T23:11:27.607Z,34.13
2023-04-24T23:13:32.592Z,34.38
2023-04-24T23:15:37.597Z,34.49
2023-04-24T23:17:42.831Z,34.21
2023-04-24T23:19:48.021Z,34.13
2023-04-24T23:21:53.036Z,34
2023-04-24T23:23:58.211Z,33.89
2023-04-24T23:26:03.310Z,34.03
2023-04-24T23:28:08.429Z,33.72
2023-04-24T23:30:13.466Z,33.77
2023-04-24T23:32:18.937Z,33.8
2023-04-24T23:34:24.003Z,33.86
2023-04-24T23:36:29.011Z,34.03
2023-04-24T23:38:51.821Z,33.93
2023-04-24T23:40:56.834Z,34.01
2023-04-24T23:43:10.280Z,33.75
2023-04-24T23:45:15.292Z,33.89
2023-04-24T23:47:20.389Z,33.85
2023-04-24T23:49:25.377Z,33.77
2023-04-24T23:51:30.483Z,33.88
2023-04-24T23:53:35.502Z,33.76
2023-04-24T23:55:40.629Z,33.86
2023-04-24T23:57:45.755Z,34.07
2023-04-24T23:59:50.852Z,33.93
